KBFI/BFI METAR and TAF weather

Enter ICAO airport designator
Station Type Date Time Source
KBFI METAR 2019/12/13 01:33 UTC NOAA

KBFI 130133Z 22006KT 10SM BKN021 09/06 A2994 RMK AO2 T00890056


Station Type Date Time Source
KBFI Decoded METAR 2019/12/13 01:33 UTC NOAA

SEATTLE BOEING FIELD, WA, United States (KBFI) 47-33N 122-19W 4M
Dec 12, 2019 - 08:33 PM EST / 2019.12.13 0133 UTC
Wind: from the SW (220 degrees) at 7 MPH (6 KT):0
Visibility: 10 mile(s):0
Sky conditions: mostly cloudy
Temperature: 48.0 F (8.9 C)
Dew Point: 42.1 F (5.6 C)
Relative Humidity: 79%
Pressure (altimeter): 29.94 in. Hg (1013 hPa)
ob: KBFI 130133Z 22006KT 10SM BKN021 09/06 A2994 RMK AO2 T00890056
cycle: 1

Station Type Date Time Source
KBFI TAF 2019/12/12 18:33 UTC NOAA

TAF KBFI 121731Z 1218/1318 17009KT P6SM -RA SCT025 OVC040
TEMPO 1219/1223 6SM -RA BR OVC030
FM122300 21012KT P6SM -RA OVC035
FM130500 17010KT P6SM -SHRA OVC030
FM131600 16008KT P6SM VCSH BKN027 BKN050

Example: see airport list